createdAt,value
2023-05-07T00:02:12.978Z,99565.38
2023-05-07T00:04:40.665Z,99560.16
2023-05-07T00:07:08.140Z,99556.88
2023-05-07T00:09:35.564Z,99567.16
2023-05-07T00:12:03.663Z,99571.72
2023-05-07T00:14:31.089Z,99576.28
2023-05-07T00:16:58.545Z,99574.19
2023-05-07T00:19:26.574Z,99561.88
2023-05-07T00:21:57.065Z,99566.56
2023-05-07T00:24:24.613Z,99564.81
2023-05-07T00:26:53.748Z,99571.59
2023-05-07T00:29:21.151Z,99571.25
2023-05-07T00:31:50.593Z,99566.13
2023-05-07T00:34:18.352Z,99569.88
2023-05-07T00:36:45.964Z,99575.66
2023-05-07T00:39:13.376Z,99574.72
2023-05-07T00:41:41.096Z,99573.34
2023-05-07T00:44:08.669Z,99571.34
2023-05-07T00:46:36.268Z,99579.75
2023-05-07T00:49:04.060Z,99574.19
2023-05-07T00:51:31.742Z,99573.50
2023-05-07T00:53:59.276Z,99584.34
2023-05-07T00:56:27.458Z,99581.66
2023-05-07T00:58:54.930Z,99577.44
2023-05-07T01:01:22.497Z,99579.94
2023-05-07T01:03:50.212Z,99571.63
2023-05-07T01:06:18.622Z,99582.81
2023-05-07T01:08:47.177Z,99577.72
2023-05-07T01:11:15.272Z,99578.03
2023-05-07T01:13:42.743Z,99577.19
2023-05-07T01:16:10.645Z,99573.34
2023-05-07T01:18:38.598Z,99572.66
2023-05-07T01:21:07.867Z,99579.44
2023-05-07T01:23:36.618Z,99578.62
2023-05-07T01:26:04.513Z,99579.94
2023-05-07T01:28:32.026Z,99574.72
2023-05-07T01:31:02.845Z,99581.81
2023-05-07T01:33:33.224Z,99590.16
2023-05-07T01:36:03.258Z,99591.19
2023-05-07T01:38:31.066Z,99586.94
2023-05-07T01:40:58.960Z,99591.16
2023-05-07T01:43:26.513Z,99592.69
2023-05-07T01:45:54.636Z,99593.38
2023-05-07T01:48:22.273Z,99586.44
2023-05-07T01:50:49.865Z,99591.16
2023-05-07T01:53:17.792Z,99582.69
2023-05-07T01:55:46.277Z,99582.34
2023-05-07T01:58:13.802Z,99579.63
2023-05-07T02:00:41.964Z,99571.19
2023-05-07T02:03:09.870Z,99576.25
2023-05-07T02:05:37.886Z,99569.47
2023-05-07T02:08:06.176Z,99566.78
2023-05-07T02:10:33.933Z,99567.44
2023-05-07T02:13:02.967Z,99562.88
2023-05-07T02:15:30.536Z,99564.91
2023-05-07T02:18:01.317Z,99572.72
2023-05-07T02:20:29.274Z,99574.72
2023-05-07T02:22:56.831Z,99568.97
2023-05-07T02:25:25.077Z,99575.88
2023-05-07T02:27:52.596Z,99573.50
2023-05-07T02:30:22.448Z,99564.66
2023-05-07T02:32:51.494Z,99565.53
2023-05-07T02:35:18.997Z,99567.25
2023-05-07T02:37:46.474Z,99565.72
2023-05-07T02:40:14.442Z,99560.47
2023-05-07T02:42:42.585Z,99566.41
2023-05-07T02:45:10.650Z,99564.88
2023-05-07T02:47:40.159Z,99563.84
2023-05-07T02:50:08.425Z,99564.03
2023-05-07T02:52:36.056Z,99561.84
2023-05-07T02:55:03.979Z,99562.94
2023-05-07T02:57:31.390Z,99562.62
2023-05-07T02:59:59.235Z,99568.88
2023-05-07T03:02:29.705Z,99565.91
2023-05-07T03:04:57.169Z,99565.91
2023-05-07T03:07:24.609Z,99557.22
2023-05-07T03:09:52.271Z,99563.84
2023-05-07T03:12:19.616Z,99561.38
2023-05-07T03:14:47.000Z,99561.22
2023-05-07T03:17:14.652Z,99562.81
2023-05-07T03:19:42.008Z,99563.81
2023-05-07T03:22:09.692Z,99558.34
2023-05-07T03:24:37.633Z,99560.19
2023-05-07T03:27:05.032Z,99563.94
2023-05-07T03:29:32.463Z,99566.03
2023-05-07T03:32:00.197Z,99565.19
2023-05-07T03:34:27.633Z,99568.03
2023-05-07T03:36:55.115Z,99567.56
2023-05-07T03:39:23.909Z,99570.62
2023-05-07T03:41:51.280Z,99572.31
2023-05-07T03:44:18.709Z,99568.22
2023-05-07T03:46:47.107Z,99567.06
2023-05-07T03:49:14.497Z,99576.06
2023-05-07T03:51:42.349Z,99577.69
2023-05-07T03:54:10.272Z,99579.22
2023-05-07T03:56:38.043Z,99580.41
2023-05-07T03:59:05.486Z,99582.13
2023-05-07T04:01:33.226Z,99590.37
2023-05-07T04:04:01.051Z,99583.31
2023-05-07T04:06:29.207Z,99581.66
2023-05-07T04:08:56.703Z,99574.69
2023-05-07T04:11:24.578Z,99578.12
2023-05-07T04:13:51.997Z,99573.75
2023-05-07T04:16:20.946Z,99583.59
2023-05-07T04:18:48.787Z,99580.25
2023-05-07T04:21:20.921Z,99588.94
2023-05-07T04:23:49.576Z,99589.16
2023-05-07T04:26:17.192Z,99592.31
2023-05-07T04:28:44.700Z,99594.25
2023-05-07T04:31:12.628Z,99597.87
2023-05-07T04:33:40.346Z,99598.50
2023-05-07T04:36:08.758Z,99601.75
2023-05-07T04:38:37.075Z,99609.06
2023-05-07T04:41:06.296Z,99604.87
2023-05-07T04:43:34.538Z,99603.38
2023-05-07T04:46:02.398Z,99602.34
2023-05-07T04:48:30.281Z,99607.59
2023-05-07T04:50:58.704Z,99600.75
2023-05-07T04:53:26.452Z,99606.16
2023-05-07T04:56:00.558Z,99602.22
2023-05-07T04:58:32.647Z,99595.06
2023-05-07T05:01:01.472Z,99602.38
2023-05-07T05:03:29.678Z,99607.00
2023-05-07T05:06:00.393Z,99611.47
2023-05-07T05:08:28.203Z,99608.75
2023-05-07T05:10:56.004Z,99608.06
2023-05-07T05:13:23.540Z,99605.22
2023-05-07T05:15:51.101Z,99608.09
2023-05-07T05:18:19.081Z,99609.94
2023-05-07T05:20:46.704Z,99608.16
2023-05-07T05:23:14.286Z,99604.56
2023-05-07T05:25:42.027Z,99614.47
2023-05-07T05:28:09.918Z,99613.47
2023-05-07T05:30:37.498Z,99611.38
2023-05-07T05:33:05.226Z,99604.66
2023-05-07T05:35:33.150Z,99602.59
2023-05-07T05:38:02.495Z,99604.37
2023-05-07T05:40:30.698Z,99600.50
2023-05-07T05:42:58.115Z,99603.94
2023-05-07T05:45:26.031Z,99601.94
2023-05-07T05:47:53.781Z,99597.28
2023-05-07T05:50:21.373Z,99593.00
2023-05-07T05:52:49.165Z,99596.28
2023-05-07T05:55:17.558Z,99594.78
2023-05-07T05:57:45.059Z,99586.72
2023-05-07T06:00:13.188Z,99590.56
2023-05-07T06:02:46.062Z,99596.84
2023-05-07T06:05:14.661Z,99602.97
2023-05-07T06:07:42.982Z,99595.63
2023-05-07T06:10:10.960Z,99606.63
2023-05-07T06:12:39.252Z,99598.66
2023-05-07T06:15:07.236Z,99607.28
2023-05-07T06:17:35.196Z,99596.94
2023-05-07T06:20:03.273Z,99594.81
2023-05-07T06:22:30.663Z,99602.31
2023-05-07T06:24:58.172Z,99600.94
2023-05-07T06:27:26.398Z,99600.50
2023-05-07T06:29:54.322Z,99601.12
2023-05-07T06:32:21.849Z,99605.63
2023-05-07T06:34:50.104Z,99597.09
2023-05-07T06:37:17.872Z,99598.72
2023-05-07T06:39:46.297Z,99604.69
2023-05-07T06:42:14.087Z,99602.06
2023-05-07T06:44:41.882Z,99602.44
2023-05-07T06:47:09.537Z,99607.06
2023-05-07T06:49:39.316Z,99608.09
2023-05-07T06:52:06.965Z,99607.19
2023-05-07T06:54:34.374Z,99610.59
2023-05-07T06:57:02.073Z,99606.97
2023-05-07T06:59:29.663Z,99607.34
2023-05-07T07:01:57.290Z,99605.22
2023-05-07T07:04:26.384Z,99613.41
2023-05-07T07:06:55.187Z,99618.44
2023-05-07T07:09:24.049Z,99627.16
2023-05-07T07:11:51.998Z,99628.28
2023-05-07T07:14:19.938Z,99630.59
2023-05-07T07:16:47.933Z,99629.78
2023-05-07T07:19:16.402Z,99634.50
2023-05-07T07:21:44.092Z,99642.16
2023-05-07T07:24:12.440Z,99645.00
2023-05-07T07:26:41.004Z,99652.50
2023-05-07T07:29:08.432Z,99649.13
2023-05-07T07:31:36.436Z,99653.56
2023-05-07T07:34:04.178Z,99651.78
2023-05-07T07:36:42.446Z,99653.72
2023-05-07T07:39:14.273Z,99661.84
2023-05-07T07:41:42.418Z,99660.50
2023-05-07T07:44:10.606Z,99662.62
2023-05-07T07:46:38.410Z,99669.66
2023-05-07T07:49:06.110Z,99660.56
2023-05-07T07:51:33.569Z,99663.94
2023-05-07T07:54:03.421Z,99662.66
2023-05-07T07:56:34.167Z,99663.66
2023-05-07T07:59:02.570Z,99660.72
2023-05-07T08:01:33.875Z,99676.56
2023-05-07T08:04:04.262Z,99668.75
2023-05-07T08:06:33.293Z,99670.72
2023-05-07T08:09:00.814Z,99667.25
2023-05-07T08:11:28.958Z,99658.87
2023-05-07T08:13:57.180Z,99660.31
2023-05-07T08:16:25.086Z,99659.25
2023-05-07T08:18:53.597Z,99659.25
2023-05-07T08:21:21.316Z,99650.69
2023-05-07T08:23:48.905Z,99656.06
2023-05-07T08:26:16.657Z,99660.22
2023-05-07T08:28:44.377Z,99650.13
2023-05-07T08:31:11.920Z,99651.81
2023-05-07T08:33:40.031Z,99655.59
2023-05-07T08:36:07.927Z,99659.50
2023-05-07T08:38:35.501Z,99663.25
2023-05-07T08:41:03.345Z,99665.16
2023-05-07T08:43:33.670Z,99668.38
2023-05-07T08:46:03.175Z,99669.69
2023-05-07T08:48:32.220Z,99677.88
2023-05-07T08:51:01.076Z,99668.50
2023-05-07T08:53:28.786Z,99664.44
2023-05-07T08:55:57.053Z,99667.94
2023-05-07T08:58:24.718Z,99677.69
2023-05-07T09:00:52.903Z,99665.09
2023-05-07T09:03:21.209Z,99668.09
2023-05-07T09:05:49.161Z,99662.72
2023-05-07T09:08:17.515Z,99664.44
2023-05-07T09:10:46.104Z,99660.22
2023-05-07T09:13:15.621Z,99653.66
2023-05-07T09:15:43.807Z,99666.50
2023-05-07T09:18:11.975Z,99666.31
2023-05-07T09:20:40.512Z,99664.38
2023-05-07T09:23:09.050Z,99665.59
2023-05-07T09:25:37.711Z,99656.19
2023-05-07T09:28:08.189Z,99667.41
2023-05-07T09:30:36.816Z,99661.88
2023-05-07T09:33:05.214Z,99663.44
2023-05-07T09:35:33.885Z,99660.31
2023-05-07T09:38:04.203Z,99655.06
2023-05-07T09:40:32.920Z,99651.50
2023-05-07T09:43:12.856Z,99657.72
2023-05-07T09:45:42.178Z,99654.19
2023-05-07T09:48:10.758Z,99661.00
2023-05-07T09:50:50.829Z,99659.13
2023-05-07T09:53:19.664Z,99656.47
2023-05-07T09:55:47.777Z,99666.28
2023-05-07T09:58:16.110Z,99663.69
2023-05-07T10:00:44.262Z,99667.25
2023-05-07T10:03:13.425Z,99671.31
2023-05-07T10:05:41.847Z,99672.59
2023-05-07T10:08:10.489Z,99675.28
2023-05-07T10:10:39.095Z,99665.66
2023-05-07T10:13:11.671Z,99671.53
2023-05-07T10:15:40.331Z,99674.41
2023-05-07T10:18:08.714Z,99669.84
2023-05-07T10:20:37.649Z,99672.59
2023-05-07T10:23:07.035Z,99674.75
2023-05-07T10:25:35.406Z,99668.28
2023-05-07T10:28:08.630Z,99664.53
2023-05-07T10:31:02.567Z,99678.91
2023-05-07T10:33:32.611Z,99677.38
2023-05-07T10:36:02.473Z,99680.87
2023-05-07T10:38:30.470Z,99668.84
2023-05-07T10:40:59.721Z,99665.28
2023-05-07T10:43:43.164Z,99661.97
2023-05-07T10:46:21.183Z,99663.38
2023-05-07T10:49:01.968Z,99654.12
2023-05-07T10:51:32.246Z,99666.91
2023-05-07T10:54:13.330Z,99656.41
2023-05-07T10:56:44.377Z,99654.88
2023-05-07T10:59:21.570Z,99653.56
2023-05-07T11:02:07.639Z,99655.69
2023-05-07T11:04:36.377Z,99655.38
2023-05-07T11:07:30.993Z,99652.13
2023-05-07T11:10:02.474Z,99651.72
2023-05-07T11:12:47.181Z,99644.81
2023-05-07T11:15:18.739Z,99642.53
2023-05-07T11:17:57.681Z,99642.50
2023-05-07T11:21:01.649Z,99642.13
2023-05-07T11:23:36.682Z,99647.78
2023-05-07T11:26:07.285Z,99650.09
2023-05-07T11:28:40.279Z,99652.41
2023-05-07T11:31:08.747Z,99659.78
2023-05-07T11:33:37.034Z,99663.59
2023-05-07T11:36:06.489Z,99647.19
2023-05-07T11:38:39.587Z,99654.53
2023-05-07T11:41:09.038Z,99655.97
2023-05-07T11:43:37.117Z,99655.12
2023-05-07T11:46:10.098Z,99653.25
2023-05-07T11:48:38.018Z,99649.19
2023-05-07T11:51:07.107Z,99646.09
2023-05-07T11:53:42.101Z,99636.81
2023-05-07T11:56:11.687Z,99632.19
2023-05-07T11:58:39.386Z,99633.03
2023-05-07T12:01:10.064Z,99634.06
2023-05-07T12:03:38.865Z,99627.53
2023-05-07T12:06:07.683Z,99636.44
2023-05-07T12:08:37.902Z,99633.81
2023-05-07T12:11:08.643Z,99624.12
2023-05-07T12:13:36.103Z,99623.62
2023-05-07T12:16:06.489Z,99620.41
2023-05-07T12:18:35.053Z,99619.00
2023-05-07T12:21:02.559Z,99615.69
2023-05-07T12:23:30.816Z,99614.72
2023-05-07T12:25:58.481Z,99618.34
2023-05-07T12:28:25.875Z,99620.16
2023-05-07T12:30:53.366Z,99611.06
2023-05-07T12:33:25.754Z,99622.69
2023-05-07T12:35:56.289Z,99612.53
2023-05-07T12:38:24.034Z,99621.66
2023-05-07T12:40:54.696Z,99626.06
2023-05-07T12:43:25.828Z,99620.41
2023-05-07T12:45:56.094Z,99614.50
2023-05-07T12:48:24.596Z,99615.13
2023-05-07T12:50:52.826Z,99604.84
2023-05-07T12:53:22.435Z,99610.44
2023-05-07T12:55:52.298Z,99607.38
2023-05-07T12:58:28.853Z,99608.47
2023-05-07T13:01:00.889Z,99617.69
2023-05-07T13:03:31.503Z,99616.75
2023-05-07T13:06:03.917Z,99614.94
2023-05-07T13:08:37.345Z,99614.16
2023-05-07T13:11:05.687Z,99610.56
2023-05-07T13:13:34.408Z,99612.06
2023-05-07T13:16:06.735Z,99609.50
2023-05-07T13:18:35.171Z,99598.13
2023-05-07T13:21:03.101Z,99599.41
2023-05-07T13:23:30.527Z,99601.91
2023-05-07T13:25:58.255Z,99602.03
2023-05-07T13:28:26.051Z,99593.78
2023-05-07T13:30:55.486Z,99593.31
2023-05-07T13:33:23.289Z,99593.50
2023-05-07T13:35:50.671Z,99593.50
2023-05-07T13:38:18.942Z,99589.63
2023-05-07T13:40:46.620Z,99590.47
2023-05-07T13:43:14.364Z,99588.03
2023-05-07T13:45:41.841Z,99592.41
2023-05-07T13:48:09.730Z,99579.06
2023-05-07T13:50:37.442Z,99580.91
2023-05-07T13:53:04.885Z,99582.63
2023-05-07T13:55:33.086Z,99571.34
2023-05-07T13:58:01.851Z,99575.78
2023-05-07T14:00:29.978Z,99569.66
2023-05-07T14:02:57.873Z,99573.72
2023-05-07T14:05:25.690Z,99565.31
2023-05-07T14:07:53.628Z,99555.34
2023-05-07T14:10:21.411Z,99560.63
2023-05-07T14:12:48.995Z,99567.50
2023-05-07T14:15:17.130Z,99563.84
2023-05-07T14:17:45.037Z,99570.22
2023-05-07T14:20:13.643Z,99575.22
2023-05-07T14:22:41.421Z,99570.81
2023-05-07T14:25:10.835Z,99564.78
2023-05-07T14:27:38.382Z,99571.72
2023-05-07T14:30:06.743Z,99575.78
2023-05-07T14:32:35.098Z,99573.84
2023-05-07T14:35:02.609Z,99576.78
2023-05-07T14:37:30.062Z,99569.72
2023-05-07T14:39:57.865Z,99575.75
2023-05-07T14:42:25.302Z,99576.59
2023-05-07T14:44:54.139Z,99588.34
2023-05-07T14:47:21.875Z,99588.06
2023-05-07T14:49:49.257Z,99581.41
2023-05-07T14:52:16.677Z,99581.00
2023-05-07T14:54:44.489Z,99579.94
2023-05-07T14:57:14.506Z,99588.19
2023-05-07T14:59:42.460Z,99592.09
2023-05-07T15:02:12.477Z,99585.19
2023-05-07T15:04:46.583Z,99587.56
2023-05-07T15:07:16.228Z,99585.22
2023-05-07T15:09:44.171Z,99591.78
2023-05-07T15:12:12.601Z,99590.69
2023-05-07T15:14:40.425Z,99593.34
2023-05-07T15:17:08.566Z,99592.81
2023-05-07T15:19:36.170Z,99592.59
2023-05-07T15:22:03.989Z,99590.28
2023-05-07T15:24:31.900Z,99598.28
2023-05-07T15:26:59.569Z,99595.13
2023-05-07T15:29:27.279Z,99594.09
2023-05-07T15:31:55.400Z,99596.00
2023-05-07T15:34:23.524Z,99583.09
2023-05-07T15:36:51.324Z,99590.69
2023-05-07T15:39:18.906Z,99599.53
2023-05-07T15:41:46.371Z,99604.59
2023-05-07T15:44:14.063Z,99600.19
2023-05-07T15:46:42.720Z,99596.19
2023-05-07T15:49:10.178Z,99599.09
2023-05-07T15:51:37.975Z,99608.62
2023-05-07T15:54:05.490Z,99592.81
2023-05-07T15:56:33.911Z,99597.41
2023-05-07T15:59:02.464Z,99598.31
2023-05-07T16:01:30.103Z,99603.34
2023-05-07T16:03:58.020Z,99604.56
2023-05-07T16:06:25.712Z,99607.88
2023-05-07T16:08:53.172Z,99612.75
2023-05-07T16:11:21.036Z,99606.44
2023-05-07T16:13:48.482Z,99604.75
2023-05-07T16:16:16.045Z,99601.94
2023-05-07T16:18:43.703Z,99602.00
2023-05-07T16:21:11.126Z,99601.25
2023-05-07T16:23:38.776Z,99599.75
2023-05-07T16:26:06.444Z,99596.41
2023-05-07T16:28:33.973Z,99589.34
2023-05-07T16:31:01.901Z,99585.12
2023-05-07T16:33:29.551Z,99577.72
2023-05-07T16:35:57.022Z,99590.28
2023-05-07T16:38:24.577Z,99590.66
2023-05-07T16:40:52.706Z,99578.59
2023-05-07T16:43:20.148Z,99581.31
2023-05-07T16:45:48.538Z,99581.69
2023-05-07T16:48:16.600Z,99582.19
2023-05-07T16:50:44.674Z,99582.31
2023-05-07T16:53:12.316Z,99579.34
2023-05-07T16:55:41.013Z,99586.72
2023-05-07T16:58:10.704Z,99593.03
2023-05-07T17:00:50.181Z,99590.09
2023-05-07T17:03:19.110Z,99590.19
2023-05-07T17:05:47.032Z,99594.25
2023-05-07T17:08:14.693Z,99593.62
2023-05-07T17:10:42.484Z,99599.84
2023-05-07T17:13:09.886Z,99598.59
2023-05-07T17:15:37.249Z,99597.00
2023-05-07T17:18:05.021Z,99598.78
2023-05-07T17:20:32.536Z,99605.56
2023-05-07T17:22:59.926Z,99602.28
2023-05-07T17:25:27.675Z,99610.81
2023-05-07T17:27:55.113Z,99617.41
2023-05-07T17:30:22.522Z,99615.41
2023-05-07T17:32:50.591Z,99622.63
2023-05-07T17:35:18.187Z,99617.75
2023-05-07T17:37:52.283Z,99618.47
2023-05-07T17:40:22.276Z,99621.28
2023-05-07T17:42:51.329Z,99620.50
2023-05-07T17:45:20.492Z,99621.38
2023-05-07T17:47:48.033Z,99630.72
2023-05-07T17:50:15.592Z,99633.09
2023-05-07T17:52:43.264Z,99637.66
2023-05-07T17:55:10.927Z,99640.63
2023-05-07T17:57:38.642Z,99647.00
2023-05-07T18:00:07.869Z,99645.19
2023-05-07T18:02:36.937Z,99653.00
2023-05-07T18:05:04.711Z,99650.66
2023-05-07T18:07:33.125Z,99657.37
2023-05-07T18:10:00.902Z,99657.66
2023-05-07T18:12:28.325Z,99664.19
2023-05-07T18:14:55.815Z,99665.16
2023-05-07T18:17:24.320Z,99664.75
2023-05-07T18:19:54.709Z,99666.47
2023-05-07T18:22:23.002Z,99666.59
2023-05-07T18:24:52.338Z,99671.31
2023-05-07T18:27:19.789Z,99673.16
2023-05-07T18:29:47.654Z,99685.59
2023-05-07T18:32:15.275Z,99694.47
2023-05-07T18:34:42.769Z,99694.44
2023-05-07T18:37:10.648Z,99697.56
2023-05-07T18:39:38.083Z,99692.66
2023-05-07T18:42:05.558Z,99693.09
2023-05-07T18:44:37.385Z,99691.62
2023-05-07T18:47:06.077Z,99697.25
2023-05-07T18:49:34.632Z,99690.91
2023-05-07T18:52:02.645Z,99692.84
2023-05-07T18:54:30.060Z,99698.72
2023-05-07T18:56:57.979Z,99698.16
2023-05-07T18:59:25.599Z,99691.50
2023-05-07T19:01:53.201Z,99690.13
2023-05-07T19:04:21.101Z,99704.59
2023-05-07T19:06:48.733Z,99704.91
2023-05-07T19:09:16.163Z,99707.34
2023-05-07T19:11:43.921Z,99715.50
2023-05-07T19:14:11.428Z,99720.44
2023-05-07T19:16:39.405Z,99731.00
2023-05-07T19:19:07.202Z,99744.25
2023-05-07T19:21:34.632Z,99761.19
2023-05-07T19:24:02.085Z,99779.44
2023-05-07T19:26:29.901Z,99795.94
2023-05-07T19:29:12.148Z,99806.53
2023-05-07T19:31:44.820Z,99825.28
2023-05-07T19:34:13.995Z,99809.09
2023-05-07T19:36:42.810Z,99811.41
2023-05-07T19:39:11.503Z,99804.91
2023-05-07T19:41:38.975Z,99814.41
2023-05-07T19:44:06.465Z,99819.78
2023-05-07T19:46:34.312Z,99827.25
2023-05-07T19:49:02.534Z,99833.47
2023-05-07T19:51:32.834Z,99833.59
2023-05-07T19:54:02.255Z,99839.38
2023-05-07T19:56:29.955Z,99846.44
2023-05-07T19:58:57.355Z,99846.53
2023-05-07T20:01:25.117Z,99851.50
2023-05-07T20:03:53.119Z,99871.91
2023-05-07T20:06:20.615Z,99867.44
2023-05-07T20:08:48.030Z,99867.94
2023-05-07T20:11:15.854Z,99873.19
2023-05-07T20:13:43.476Z,99864.47
2023-05-07T20:16:11.631Z,99878.47
2023-05-07T20:18:39.630Z,99871.34
2023-05-07T20:21:07.160Z,99876.09
2023-05-07T20:23:34.562Z,99876.53
2023-05-07T20:26:02.289Z,99877.53
2023-05-07T20:28:29.764Z,99893.28
2023-05-07T20:30:57.170Z,99894.00
2023-05-07T20:33:24.986Z,99889.38
2023-05-07T20:35:52.392Z,99889.66
2023-05-07T20:38:19.894Z,99890.84
2023-05-07T20:40:47.642Z,99892.09
2023-05-07T20:43:15.193Z,99899.81
2023-05-07T20:45:42.651Z,99898.94
2023-05-07T20:48:10.394Z,99902.16
2023-05-07T20:50:37.839Z,99902.25
2023-05-07T20:53:05.529Z,99911.06
2023-05-07T20:55:33.330Z,99907.66
2023-05-07T20:58:00.786Z,99913.47
2023-05-07T21:00:28.284Z,99906.09
2023-05-07T21:02:55.995Z,99914.34
2023-05-07T21:05:23.514Z,99923.19
2023-05-07T21:07:50.935Z,99921.69
2023-05-07T21:10:18.624Z,99930.81
2023-05-07T21:12:46.089Z,99929.19
2023-05-07T21:15:13.481Z,99934.41
2023-05-07T21:17:41.254Z,99935.78
2023-05-07T21:20:09.207Z,99931.87
2023-05-07T21:22:36.729Z,99932.56
2023-05-07T21:25:04.782Z,99935.03
2023-05-07T21:27:32.186Z,99938.28
2023-05-07T21:30:04.608Z,99934.03
2023-05-07T21:32:34.124Z,99931.63
2023-05-07T21:35:01.816Z,99934.69
2023-05-07T21:37:29.728Z,99941.00
2023-05-07T21:39:57.385Z,99944.41
2023-05-07T21:42:25.306Z,99941.84
2023-05-07T21:44:52.754Z,99939.97
2023-05-07T21:47:20.461Z,99939.75
2023-05-07T21:49:47.941Z,99943.72
2023-05-07T21:52:17.032Z,99948.06
2023-05-07T21:54:44.937Z,99948.94
2023-05-07T21:57:12.368Z,99938.81
2023-05-07T21:59:39.953Z,99943.59
2023-05-07T22:02:07.737Z,99950.47
2023-05-07T22:04:35.470Z,99946.31
2023-05-07T22:07:03.094Z,99950.22
2023-05-07T22:09:30.618Z,99954.81
2023-05-07T22:11:58.312Z,99952.72
2023-05-07T22:14:25.809Z,99952.72
2023-05-07T22:16:53.473Z,99950.59
2023-05-07T22:19:21.356Z,99954.75
2023-05-07T22:21:49.178Z,99956.37
2023-05-07T22:24:16.653Z,99953.94
2023-05-07T22:26:45.184Z,99953.06
2023-05-07T22:29:12.602Z,99950.75
2023-05-07T22:31:40.035Z,99951.28
2023-05-07T22:34:07.743Z,99945.81
2023-05-07T22:36:35.129Z,99956.63
2023-05-07T22:39:03.484Z,99955.31
2023-05-07T22:41:31.149Z,99961.63
2023-05-07T22:43:58.983Z,99968.72
2023-05-07T22:46:26.663Z,99973.06
2023-05-07T22:48:54.794Z,99972.38
2023-05-07T22:51:22.231Z,99964.72
2023-05-07T22:53:49.649Z,99976.28
2023-05-07T22:56:17.272Z,99979.97
2023-05-07T22:58:44.739Z,99976.03
2023-05-07T23:01:13.852Z,99976.28
2023-05-07T23:03:41.756Z,99973.66
2023-05-07T23:06:09.185Z,99982.31
2023-05-07T23:08:36.660Z,99986.06
2023-05-07T23:11:04.382Z,99984.19
2023-05-07T23:13:31.866Z,99981.81
2023-05-07T23:15:59.264Z,99975.31
2023-05-07T23:18:28.101Z,99978.09
2023-05-07T23:20:55.568Z,99972.22
2023-05-07T23:23:22.993Z,99975.75
2023-05-07T23:25:53.792Z,99981.19
2023-05-07T23:28:21.265Z,99987.22
2023-05-07T23:30:48.714Z,99979.72
2023-05-07T23:33:16.428Z,99979.94
2023-05-07T23:35:43.826Z,99978.78
2023-05-07T23:38:11.201Z,99974.59
2023-05-07T23:40:38.840Z,99980.00
2023-05-07T23:43:06.247Z,99971.34
2023-05-07T23:45:33.627Z,99977.31
2023-05-07T23:48:01.339Z,99975.12
2023-05-07T23:50:28.768Z,99971.97
2023-05-07T23:52:56.343Z,99972.09
2023-05-07T23:55:24.002Z,99974.78
2023-05-07T23:57:51.492Z,99969.56
